sensor_id;sensor_type;location;lat;lon;timestamp;temperature;humidity
19755;DHT22;10036;47.812;9.274;2023-12-28T00:01:40;0.00;99.90
19755;DHT22;10036;47.812;9.274;2023-12-28T00:04:07;-0.10;99.90
19755;DHT22;10036;47.812;9.274;2023-12-28T00:06:34;-0.10;99.90
19755;DHT22;10036;47.812;9.274;2023-12-28T00:09:02;0.00;99.90
19755;DHT22;10036;47.812;9.274;2023-12-28T00:11:29;0.00;99.90
19755;DHT22;10036;47.812;9.274;2023-12-28T00:13:56;-0.10;99.90
19755;DHT22;10036;47.812;9.274;2023-12-28T00:16:23;-0.20;99.90
19755;DHT22;10036;47.812;9.274;2023-12-28T00:18:50;-0.20;99.90
19755;DHT22;10036;47.812;9.274;2023-12-28T00:21:17;-0.20;99.90
19755;DHT22;10036;47.812;9.274;2023-12-28T00:23:44;-0.20;99.90
19755;DHT22;10036;47.812;9.274;2023-12-28T00:26:12;-0.30;99.90
19755;DHT22;10036;47.812;9.274;2023-12-28T00:28:39;-0.40;99.90
19755;DHT22;10036;47.812;9.274;2023-12-28T00:31:06;-0.50;99.90
19755;DHT22;10036;47.812;9.274;2023-12-28T00:33:33;-0.50;99.90
19755;DHT22;10036;47.812;9.274;2023-12-28T00:35:59;-0.50;99.90
19755;DHT22;10036;47.812;9.274;2023-12-28T00:38:26;-0.50;99.90
19755;DHT22;10036;47.812;9.274;2023-12-28T00:40:53;-0.40;99.90
19755;DHT22;10036;47.812;9.274;2023-12-28T00:43:21;-0.30;99.90
19755;DHT22;10036;47.812;9.274;2023-12-28T00:45:48;-0.40;99.90
19755;DHT22;10036;47.812;9.274;2023-12-28T00:48:15;-0.50;99.90
19755;DHT22;10036;47.812;9.274;2023-12-28T00:50:42;-0.50;99.90
19755;DHT22;10036;47.812;9.274;2023-12-28T00:53:09;-0.50;99.90
19755;DHT22;10036;47.812;9.274;2023-12-28T00:55:53;-0.50;99.90
19755;DHT22;10036;47.812;9.274;2023-12-28T00:58:21;-0.40;99.90
19755;DHT22;10036;47.812;9.274;2023-12-28T01:00:48;-0.40;99.90
19755;DHT22;10036;47.812;9.274;2023-12-28T01:03:18;-0.40;99.90
19755;DHT22;10036;47.812;9.274;2023-12-28T01:05:45;-0.20;99.90
19755;DHT22;10036;47.812;9.274;2023-12-28T01:08:16;-0.30;99.90
19755;DHT22;10036;47.812;9.274;2023-12-28T01:10:42;-0.40;99.90
19755;DHT22;10036;47.812;9.274;2023-12-28T01:13:10;-0.50;99.90
19755;DHT22;10036;47.812;9.274;2023-12-28T01:15:37;-0.50;99.90
19755;DHT22;10036;47.812;9.274;2023-12-28T01:18:04;-0.50;99.90
19755;DHT22;10036;47.812;9.274;2023-12-28T01:20:31;-0.40;99.90
19755;DHT22;10036;47.812;9.274;2023-12-28T01:22:58;-0.50;99.90
19755;DHT22;10036;47.812;9.274;2023-12-28T01:25:25;-0.50;99.90
19755;DHT22;10036;47.812;9.274;2023-12-28T01:27:51;-0.70;99.90
19755;DHT22;10036;47.812;9.274;2023-12-28T01:30:18;-0.80;99.90
19755;DHT22;10036;47.812;9.274;2023-12-28T01:32:46;-0.80;99.90
19755;DHT22;10036;47.812;9.274;2023-12-28T01:35:13;-0.70;99.90
19755;DHT22;10036;47.812;9.274;2023-12-28T01:37:40;-0.60;99.90
19755;DHT22;10036;47.812;9.274;2023-12-28T01:40:08;-0.60;99.90
19755;DHT22;10036;47.812;9.274;2023-12-28T01:42:35;-0.50;99.90
19755;DHT22;10036;47.812;9.274;2023-12-28T01:45:02;-0.50;99.90
19755;DHT22;10036;47.812;9.274;2023-12-28T01:47:30;-0.60;99.90
19755;DHT22;10036;47.812;9.274;2023-12-28T01:49:59;-0.60;99.90
19755;DHT22;10036;47.812;9.274;2023-12-28T01:52:27;-0.60;99.90
19755;DHT22;10036;47.812;9.274;2023-12-28T01:54:55;-0.40;99.90
19755;DHT22;10036;47.812;9.274;2023-12-28T01:57:22;-0.50;99.90
19755;DHT22;10036;47.812;9.274;2023-12-28T01:59:49;-0.50;99.90
19755;DHT22;10036;47.812;9.274;2023-12-28T02:02:17;-0.60;99.90
19755;DHT22;10036;47.812;9.274;2023-12-28T02:04:44;-0.70;99.90
19755;DHT22;10036;47.812;9.274;2023-12-28T02:07:13;-0.70;99.90
19755;DHT22;10036;47.812;9.274;2023-12-28T02:09:41;-0.60;99.90
19755;DHT22;10036;47.812;9.274;2023-12-28T02:12:08;-0.70;99.90
19755;DHT22;10036;47.812;9.274;2023-12-28T02:14:35;-0.70;99.90
19755;DHT22;10036;47.812;9.274;2023-12-28T02:17:06;-0.60;99.90
19755;DHT22;10036;47.812;9.274;2023-12-28T02:19:50;-0.70;99.90
19755;DHT22;10036;47.812;9.274;2023-12-28T02:22:18;-0.70;99.90
19755;DHT22;10036;47.812;9.274;2023-12-28T02:25:07;-0.70;99.90
19755;DHT22;10036;47.812;9.274;2023-12-28T02:27:37;-0.70;99.90
19755;DHT22;10036;47.812;9.274;2023-12-28T02:30:06;-0.80;99.90
19755;DHT22;10036;47.812;9.274;2023-12-28T02:32:40;-0.80;99.90
19755;DHT22;10036;47.812;9.274;2023-12-28T02:35:16;-0.80;99.90
19755;DHT22;10036;47.812;9.274;2023-12-28T02:37:44;-0.80;99.90
19755;DHT22;10036;47.812;9.274;2023-12-28T02:40:15;-0.70;99.90
19755;DHT22;10036;47.812;9.274;2023-12-28T02:42:43;-0.60;99.90
19755;DHT22;10036;47.812;9.274;2023-12-28T02:45:09;-0.70;99.90
19755;DHT22;10036;47.812;9.274;2023-12-28T02:47:36;-0.80;99.90
19755;DHT22;10036;47.812;9.274;2023-12-28T02:50:03;-0.90;99.90
19755;DHT22;10036;47.812;9.274;2023-12-28T02:52:30;-0.90;99.90
19755;DHT22;10036;47.812;9.274;2023-12-28T02:54:57;-0.90;99.90
19755;DHT22;10036;47.812;9.274;2023-12-28T02:57:25;-0.90;99.90
19755;DHT22;10036;47.812;9.274;2023-12-28T02:59:52;-0.80;99.90
19755;DHT22;10036;47.812;9.274;2023-12-28T03:02:19;-0.80;99.90
19755;DHT22;10036;47.812;9.274;2023-12-28T03:04:46;-0.80;99.90
19755;DHT22;10036;47.812;9.274;2023-12-28T03:07:12;-0.90;99.90
19755;DHT22;10036;47.812;9.274;2023-12-28T03:09:39;-0.90;99.90
19755;DHT22;10036;47.812;9.274;2023-12-28T03:12:07;-0.90;99.90
19755;DHT22;10036;47.812;9.274;2023-12-28T03:14:35;-1.00;99.90
19755;DHT22;10036;47.812;9.274;2023-12-28T03:17:02;-0.90;99.90
19755;DHT22;10036;47.812;9.274;2023-12-28T03:19:29;-0.90;99.90
19755;DHT22;10036;47.812;9.274;2023-12-28T03:21:55;-0.80;99.90
19755;DHT22;10036;47.812;9.274;2023-12-28T03:24:22;-0.80;99.90
19755;DHT22;10036;47.812;9.274;2023-12-28T03:26:49;-0.90;99.90
19755;DHT22;10036;47.812;9.274;2023-12-28T03:29:16;-0.80;99.90
19755;DHT22;10036;47.812;9.274;2023-12-28T03:31:44;-0.90;99.90
19755;DHT22;10036;47.812;9.274;2023-12-28T03:34:11;-0.80;99.90
19755;DHT22;10036;47.812;9.274;2023-12-28T03:36:38;-0.90;99.90
19755;DHT22;10036;47.812;9.274;2023-12-28T03:39:05;-0.80;99.90
19755;DHT22;10036;47.812;9.274;2023-12-28T03:41:32;-0.80;99.90
19755;DHT22;10036;47.812;9.274;2023-12-28T03:43:59;-0.70;99.90
19755;DHT22;10036;47.812;9.274;2023-12-28T03:46:26;-0.70;99.90
19755;DHT22;10036;47.812;9.274;2023-12-28T03:48:54;-0.80;99.90
19755;DHT22;10036;47.812;9.274;2023-12-28T03:51:21;-0.80;99.90
19755;DHT22;10036;47.812;9.274;2023-12-28T03:53:48;-0.80;99.90
19755;DHT22;10036;47.812;9.274;2023-12-28T03:56:20;-0.90;99.90
19755;DHT22;10036;47.812;9.274;2023-12-28T03:58:46;-1.00;99.90
19755;DHT22;10036;47.812;9.274;2023-12-28T04:01:13;-1.00;99.90
19755;DHT22;10036;47.812;9.274;2023-12-28T04:03:40;-0.90;99.90
19755;DHT22;10036;47.812;9.274;2023-12-28T04:06:08;-0.90;99.90
19755;DHT22;10036;47.812;9.274;2023-12-28T04:08:35;-0.90;99.90
19755;DHT22;10036;47.812;9.274;2023-12-28T04:11:02;-0.90;99.90
19755;DHT22;10036;47.812;9.274;2023-12-28T04:13:29;-0.80;99.90
19755;DHT22;10036;47.812;9.274;2023-12-28T04:15:56;-0.90;99.90
19755;DHT22;10036;47.812;9.274;2023-12-28T04:18:23;-1.10;99.90
19755;DHT22;10036;47.812;9.274;2023-12-28T04:20:49;-1.20;99.90
19755;DHT22;10036;47.812;9.274;2023-12-28T04:23:18;-1.20;99.90
19755;DHT22;10036;47.812;9.274;2023-12-28T04:25:44;-1.20;99.90
19755;DHT22;10036;47.812;9.274;2023-12-28T04:28:11;-1.20;99.90
19755;DHT22;10036;47.812;9.274;2023-12-28T04:30:38;-1.10;99.90
19755;DHT22;10036;47.812;9.274;2023-12-28T04:33:05;-1.10;99.90
19755;DHT22;10036;47.812;9.274;2023-12-28T04:35:32;-1.10;99.90
19755;DHT22;10036;47.812;9.274;2023-12-28T04:37:59;-1.00;99.90
19755;DHT22;10036;47.812;9.274;2023-12-28T04:40:27;-0.90;99.90
19755;DHT22;10036;47.812;9.274;2023-12-28T04:42:54;-0.90;99.90
19755;DHT22;10036;47.812;9.274;2023-12-28T04:45:20;-0.90;99.90
19755;DHT22;10036;47.812;9.274;2023-12-28T04:47:48;-0.80;99.90
19755;DHT22;10036;47.812;9.274;2023-12-28T04:50:15;-0.80;99.90
19755;DHT22;10036;47.812;9.274;2023-12-28T04:52:42;-0.90;99.90
19755;DHT22;10036;47.812;9.274;2023-12-28T04:55:09;-0.90;99.90
19755;DHT22;10036;47.812;9.274;2023-12-28T04:57:37;-0.90;99.90
19755;DHT22;10036;47.812;9.274;2023-12-28T05:00:05;-0.90;99.90
19755;DHT22;10036;47.812;9.274;2023-12-28T05:02:32;-0.90;99.90
19755;DHT22;10036;47.812;9.274;2023-12-28T05:04:59;-0.90;99.90
19755;DHT22;10036;47.812;9.274;2023-12-28T05:07:26;-0.90;99.90
19755;DHT22;10036;47.812;9.274;2023-12-28T05:09:52;-0.90;99.90
19755;DHT22;10036;47.812;9.274;2023-12-28T05:12:19;-1.00;99.90
19755;DHT22;10036;47.812;9.274;2023-12-28T05:14:48;-1.00;99.90
19755;DHT22;10036;47.812;9.274;2023-12-28T05:17:14;-1.20;99.90
19755;DHT22;10036;47.812;9.274;2023-12-28T05:19:41;-1.20;99.90
19755;DHT22;10036;47.812;9.274;2023-12-28T05:22:08;-1.20;99.90
19755;DHT22;10036;47.812;9.274;2023-12-28T05:24:36;-1.20;99.90
19755;DHT22;10036;47.812;9.274;2023-12-28T05:27:04;-1.10;99.90
19755;DHT22;10036;47.812;9.274;2023-12-28T05:29:30;-1.10;99.90
19755;DHT22;10036;47.812;9.274;2023-12-28T05:31:59;-1.10;99.90
19755;DHT22;10036;47.812;9.274;2023-12-28T05:34:25;-1.10;99.90
19755;DHT22;10036;47.812;9.274;2023-12-28T05:36:52;-1.10;99.90
19755;DHT22;10036;47.812;9.274;2023-12-28T05:39:19;-1.10;99.90
19755;DHT22;10036;47.812;9.274;2023-12-28T05:41:46;-1.10;99.90
19755;DHT22;10036;47.812;9.274;2023-12-28T05:44:13;-1.00;99.90
19755;DHT22;10036;47.812;9.274;2023-12-28T05:46:40;-1.00;99.90
19755;DHT22;10036;47.812;9.274;2023-12-28T05:49:09;-1.00;99.90
19755;DHT22;10036;47.812;9.274;2023-12-28T05:51:39;-1.00;99.90
19755;DHT22;10036;47.812;9.274;2023-12-28T05:54:06;-1.00;99.90
19755;DHT22;10036;47.812;9.274;2023-12-28T05:56:34;-1.00;99.90
19755;DHT22;10036;47.812;9.274;2023-12-28T05:59:00;-1.00;99.90
19755;DHT22;10036;47.812;9.274;2023-12-28T06:01:27;-1.00;99.90
19755;DHT22;10036;47.812;9.274;2023-12-28T06:03:54;-1.00;99.90
19755;DHT22;10036;47.812;9.274;2023-12-28T06:06:22;-1.10;99.90
19755;DHT22;10036;47.812;9.274;2023-12-28T06:08:49;-1.10;99.90
19755;DHT22;10036;47.812;9.274;2023-12-28T06:11:16;-1.10;99.90
19755;DHT22;10036;47.812;9.274;2023-12-28T06:13:43;-1.10;99.90
19755;DHT22;10036;47.812;9.274;2023-12-28T06:16:10;-1.20;99.90
19755;DHT22;10036;47.812;9.274;2023-12-28T06:18:37;-1.30;99.90
19755;DHT22;10036;47.812;9.274;2023-12-28T06:21:04;-1.30;99.90
19755;DHT22;10036;47.812;9.274;2023-12-28T06:23:33;-1.40;99.90
19755;DHT22;10036;47.812;9.274;2023-12-28T06:26:04;-1.30;99.90
19755;DHT22;10036;47.812;9.274;2023-12-28T06:28:32;-1.10;99.90
19755;DHT22;10036;47.812;9.274;2023-12-28T06:30:59;-1.10;99.90
19755;DHT22;10036;47.812;9.274;2023-12-28T06:33:26;-1.10;99.90
19755;DHT22;10036;47.812;9.274;2023-12-28T06:35:54;-1.10;99.90
19755;DHT22;10036;47.812;9.274;2023-12-28T06:38:23;-1.00;99.90
19755;DHT22;10036;47.812;9.274;2023-12-28T06:40:51;-1.00;99.90
19755;DHT22;10036;47.812;9.274;2023-12-28T06:43:18;-0.90;99.90
19755;DHT22;10036;47.812;9.274;2023-12-28T06:45:45;-0.90;99.90
19755;DHT22;10036;47.812;9.274;2023-12-28T06:48:12;-1.00;99.90
19755;DHT22;10036;47.812;9.274;2023-12-28T06:50:39;-1.00;99.90
19755;DHT22;10036;47.812;9.274;2023-12-28T06:53:05;-1.10;99.90
19755;DHT22;10036;47.812;9.274;2023-12-28T06:55:32;-1.20;99.90
19755;DHT22;10036;47.812;9.274;2023-12-28T06:58:01;-1.30;99.90
19755;DHT22;10036;47.812;9.274;2023-12-28T07:00:28;-1.20;99.90
19755;DHT22;10036;47.812;9.274;2023-12-28T07:02:55;-1.20;99.90
19755;DHT22;10036;47.812;9.274;2023-12-28T07:05:22;-1.20;99.90
19755;DHT22;10036;47.812;9.274;2023-12-28T07:07:49;-1.20;99.90
19755;DHT22;10036;47.812;9.274;2023-12-28T07:10:15;-1.20;99.90
19755;DHT22;10036;47.812;9.274;2023-12-28T07:12:42;-1.20;99.90
19755;DHT22;10036;47.812;9.274;2023-12-28T07:15:11;-1.20;99.90
19755;DHT22;10036;47.812;9.274;2023-12-28T07:17:40;-1.20;99.90
19755;DHT22;10036;47.812;9.274;2023-12-28T07:20:08;-1.20;99.90
19755;DHT22;10036;47.812;9.274;2023-12-28T07:22:36;-1.10;99.90
19755;DHT22;10036;47.812;9.274;2023-12-28T07:25:04;-1.10;99.90
19755;DHT22;10036;47.812;9.274;2023-12-28T07:27:31;-1.10;99.90
19755;DHT22;10036;47.812;9.274;2023-12-28T07:29:58;-1.00;99.90
19755;DHT22;10036;47.812;9.274;2023-12-28T07:32:26;-0.90;99.90
19755;DHT22;10036;47.812;9.274;2023-12-28T07:34:55;-0.80;99.90
19755;DHT22;10036;47.812;9.274;2023-12-28T07:37:22;-0.70;99.90
19755;DHT22;10036;47.812;9.274;2023-12-28T07:39:48;-0.70;99.90
19755;DHT22;10036;47.812;9.274;2023-12-28T07:42:15;-0.50;99.90
19755;DHT22;10036;47.812;9.274;2023-12-28T07:44:43;-0.50;99.90
19755;DHT22;10036;47.812;9.274;2023-12-28T07:47:10;-0.40;99.90
19755;DHT22;10036;47.812;9.274;2023-12-28T07:49:39;-0.40;99.90
19755;DHT22;10036;47.812;9.274;2023-12-28T07:52:06;-0.30;99.90
19755;DHT22;10036;47.812;9.274;2023-12-28T07:54:33;-0.20;99.90
19755;DHT22;10036;47.812;9.274;2023-12-28T07:56:59;0.00;99.90
19755;DHT22;10036;47.812;9.274;2023-12-28T07:59:26;0.00;99.90
19755;DHT22;10036;47.812;9.274;2023-12-28T08:01:53;0.10;99.90
19755;DHT22;10036;47.812;9.274;2023-12-28T08:04:20;0.10;99.90
19755;DHT22;10036;47.812;9.274;2023-12-28T08:06:49;0.10;99.90
19755;DHT22;10036;47.812;9.274;2023-12-28T08:09:15;0.20;99.90
19755;DHT22;10036;47.812;9.274;2023-12-28T08:11:42;0.30;99.90
19755;DHT22;10036;47.812;9.274;2023-12-28T08:14:09;0.40;99.90
19755;DHT22;10036;47.812;9.274;2023-12-28T08:16:36;0.50;99.90
19755;DHT22;10036;47.812;9.274;2023-12-28T08:19:03;0.50;99.90
19755;DHT22;10036;47.812;9.274;2023-12-28T08:21:30;0.60;99.90
19755;DHT22;10036;47.812;9.274;2023-12-28T08:23:58;0.70;99.90
19755;DHT22;10036;47.812;9.274;2023-12-28T08:26:25;0.80;99.90
19755;DHT22;10036;47.812;9.274;2023-12-28T08:28:52;0.90;99.90
19755;DHT22;10036;47.812;9.274;2023-12-28T08:31:18;0.90;99.90
19755;DHT22;10036;47.812;9.274;2023-12-28T08:33:45;1.00;99.90
19755;DHT22;10036;47.812;9.274;2023-12-28T08:36:12;1.00;99.90
19755;DHT22;10036;47.812;9.274;2023-12-28T08:38:39;1.10;99.90
19755;DHT22;10036;47.812;9.274;2023-12-28T08:41:07;1.10;99.90
19755;DHT22;10036;47.812;9.274;2023-12-28T08:43:35;1.20;99.90
19755;DHT22;10036;47.812;9.274;2023-12-28T08:46:02;1.30;99.90
19755;DHT22;10036;47.812;9.274;2023-12-28T08:48:28;1.30;99.90
19755;DHT22;10036;47.812;9.274;2023-12-28T08:50:55;1.40;99.90
19755;DHT22;10036;47.812;9.274;2023-12-28T08:53:22;1.50;99.90
19755;DHT22;10036;47.812;9.274;2023-12-28T08:55:49;1.50;99.90
19755;DHT22;10036;47.812;9.274;2023-12-28T08:58:18;1.60;99.90
19755;DHT22;10036;47.812;9.274;2023-12-28T09:00:45;1.60;99.90
19755;DHT22;10036;47.812;9.274;2023-12-28T09:03:13;1.60;99.90
19755;DHT22;10036;47.812;9.274;2023-12-28T09:05:40;1.70;99.90
19755;DHT22;10036;47.812;9.274;2023-12-28T09:08:07;1.70;99.90
19755;DHT22;10036;47.812;9.274;2023-12-28T09:10:34;1.80;99.90
19755;DHT22;10036;47.812;9.274;2023-12-28T09:13:03;1.80;99.90
19755;DHT22;10036;47.812;9.274;2023-12-28T09:15:31;1.70;99.90
19755;DHT22;10036;47.812;9.274;2023-12-28T09:17:58;1.70;99.90
19755;DHT22;10036;47.812;9.274;2023-12-28T09:20:25;1.80;99.90
19755;DHT22;10036;47.812;9.274;2023-12-28T09:22:52;1.80;99.90
19755;DHT22;10036;47.812;9.274;2023-12-28T09:25:21;1.70;99.90
19755;DHT22;10036;47.812;9.274;2023-12-28T09:27:48;1.80;99.90
19755;DHT22;10036;47.812;9.274;2023-12-28T09:30:15;1.80;99.90
19755;DHT22;10036;47.812;9.274;2023-12-28T09:32:44;1.90;99.90
19755;DHT22;10036;47.812;9.274;2023-12-28T09:35:10;1.90;99.90
19755;DHT22;10036;47.812;9.274;2023-12-28T09:37:37;2.00;99.90
19755;DHT22;10036;47.812;9.274;2023-12-28T09:40:05;2.00;99.90
19755;DHT22;10036;47.812;9.274;2023-12-28T09:42:39;2.10;99.90
19755;DHT22;10036;47.812;9.274;2023-12-28T09:45:07;2.20;99.90
19755;DHT22;10036;47.812;9.274;2023-12-28T09:47:35;2.30;99.90
19755;DHT22;10036;47.812;9.274;2023-12-28T09:50:04;2.40;99.90
19755;DHT22;10036;47.812;9.274;2023-12-28T09:52:32;2.40;99.90
19755;DHT22;10036;47.812;9.274;2023-12-28T09:54:59;2.50;99.90
19755;DHT22;10036;47.812;9.274;2023-12-28T09:57:26;2.50;99.90
19755;DHT22;10036;47.812;9.274;2023-12-28T09:59:53;2.50;99.90
19755;DHT22;10036;47.812;9.274;2023-12-28T10:02:20;2.50;99.90
19755;DHT22;10036;47.812;9.274;2023-12-28T10:04:47;2.40;99.90
19755;DHT22;10036;47.812;9.274;2023-12-28T10:07:15;2.40;99.90
19755;DHT22;10036;47.812;9.274;2023-12-28T10:09:42;2.50;99.90
19755;DHT22;10036;47.812;9.274;2023-12-28T10:12:09;2.60;99.90
19755;DHT22;10036;47.812;9.274;2023-12-28T10:14:36;2.60;99.90
19755;DHT22;10036;47.812;9.274;2023-12-28T10:17:03;2.50;99.90
19755;DHT22;10036;47.812;9.274;2023-12-28T10:19:30;2.50;99.90
19755;DHT22;10036;47.812;9.274;2023-12-28T10:21:57;2.60;99.90
19755;DHT22;10036;47.812;9.274;2023-12-28T10:24:26;2.40;99.90
19755;DHT22;10036;47.812;9.274;2023-12-28T10:26:53;2.60;99.90
19755;DHT22;10036;47.812;9.274;2023-12-28T10:29:20;2.70;99.90
19755;DHT22;10036;47.812;9.274;2023-12-28T10:31:47;2.60;99.90
19755;DHT22;10036;47.812;9.274;2023-12-28T10:34:17;2.70;99.90
19755;DHT22;10036;47.812;9.274;2023-12-28T10:36:46;2.80;99.90
19755;DHT22;10036;47.812;9.274;2023-12-28T10:39:17;2.80;99.90
19755;DHT22;10036;47.812;9.274;2023-12-28T10:41:49;2.80;99.90
19755;DHT22;10036;47.812;9.274;2023-12-28T10:44:20;2.90;99.90
19755;DHT22;10036;47.812;9.274;2023-12-28T10:46:48;3.00;99.90
19755;DHT22;10036;47.812;9.274;2023-12-28T10:49:21;3.10;99.90
19755;DHT22;10036;47.812;9.274;2023-12-28T10:51:51;3.10;99.90
19755;DHT22;10036;47.812;9.274;2023-12-28T10:54:28;3.10;99.90
19755;DHT22;10036;47.812;9.274;2023-12-28T10:57:05;3.20;99.90
19755;DHT22;10036;47.812;9.274;2023-12-28T10:59:41;3.30;99.90
19755;DHT22;10036;47.812;9.274;2023-12-28T11:02:14;3.40;99.90
19755;DHT22;10036;47.812;9.274;2023-12-28T11:04:46;3.30;99.90
19755;DHT22;10036;47.812;9.274;2023-12-28T11:07:15;3.40;99.90
19755;DHT22;10036;47.812;9.274;2023-12-28T11:09:44;3.50;99.90
19755;DHT22;10036;47.812;9.274;2023-12-28T11:12:13;3.40;99.90
19755;DHT22;10036;47.812;9.274;2023-12-28T11:14:44;3.40;99.90
19755;DHT22;10036;47.812;9.274;2023-12-28T11:17:13;3.40;99.90
19755;DHT22;10036;47.812;9.274;2023-12-28T11:19:42;3.30;99.90
19755;DHT22;10036;47.812;9.274;2023-12-28T11:22:09;3.20;99.90
19755;DHT22;10036;47.812;9.274;2023-12-28T11:24:36;3.30;99.90
19755;DHT22;10036;47.812;9.274;2023-12-28T11:27:03;3.40;99.90
19755;DHT22;10036;47.812;9.274;2023-12-28T11:29:32;3.40;99.90
19755;DHT22;10036;47.812;9.274;2023-12-28T11:32:00;3.40;99.90
19755;DHT22;10036;47.812;9.274;2023-12-28T11:34:28;3.50;99.90
19755;DHT22;10036;47.812;9.274;2023-12-28T11:36:56;3.50;99.90
19755;DHT22;10036;47.812;9.274;2023-12-28T11:39:30;3.60;99.90
19755;DHT22;10036;47.812;9.274;2023-12-28T11:42:02;3.70;99.90
19755;DHT22;10036;47.812;9.274;2023-12-28T11:44:29;3.80;99.90
19755;DHT22;10036;47.812;9.274;2023-12-28T11:46:58;3.80;99.90
19755;DHT22;10036;47.812;9.274;2023-12-28T11:49:25;3.90;99.90
19755;DHT22;10036;47.812;9.274;2023-12-28T11:51:55;4.00;99.90
19755;DHT22;10036;47.812;9.274;2023-12-28T11:54:24;4.10;99.90
19755;DHT22;10036;47.812;9.274;2023-12-28T11:56:51;4.10;99.90
19755;DHT22;10036;47.812;9.274;2023-12-28T11:59:18;4.20;99.90
19755;DHT22;10036;47.812;9.274;2023-12-28T12:01:49;4.30;99.90
19755;DHT22;10036;47.812;9.274;2023-12-28T12:04:18;4.40;99.90
19755;DHT22;10036;47.812;9.274;2023-12-28T12:06:45;4.40;99.90
19755;DHT22;10036;47.812;9.274;2023-12-28T12:09:13;4.40;99.90
19755;DHT22;10036;47.812;9.274;2023-12-28T12:11:40;4.50;99.90
19755;DHT22;10036;47.812;9.274;2023-12-28T12:14:08;4.60;99.90
19755;DHT22;10036;47.812;9.274;2023-12-28T12:16:35;4.60;99.90
19755;DHT22;10036;47.812;9.274;2023-12-28T12:19:02;4.70;99.90
19755;DHT22;10036;47.812;9.274;2023-12-28T12:21:30;4.60;99.90
19755;DHT22;10036;47.812;9.274;2023-12-28T12:23:57;4.70;99.90
19755;DHT22;10036;47.812;9.274;2023-12-28T12:26:24;4.60;99.90
19755;DHT22;10036;47.812;9.274;2023-12-28T12:28:52;4.60;99.90
19755;DHT22;10036;47.812;9.274;2023-12-28T12:31:19;4.50;99.90
19755;DHT22;10036;47.812;9.274;2023-12-28T12:33:47;4.40;99.90
19755;DHT22;10036;47.812;9.274;2023-12-28T12:36:14;4.30;99.90
19755;DHT22;10036;47.812;9.274;2023-12-28T12:38:42;4.20;99.90
19755;DHT22;10036;47.812;9.274;2023-12-28T12:41:10;4.10;99.90
19755;DHT22;10036;47.812;9.274;2023-12-28T12:43:38;4.20;99.90
19755;DHT22;10036;47.812;9.274;2023-12-28T12:46:06;4.20;99.90
19755;DHT22;10036;47.812;9.274;2023-12-28T12:48:33;4.20;99.90
19755;DHT22;10036;47.812;9.274;2023-12-28T12:51:02;4.20;99.90
19755;DHT22;10036;47.812;9.274;2023-12-28T12:53:33;4.10;99.90
19755;DHT22;10036;47.812;9.274;2023-12-28T12:56:03;4.10;99.90
19755;DHT22;10036;47.812;9.274;2023-12-28T12:58:30;4.10;99.90
19755;DHT22;10036;47.812;9.274;2023-12-28T13:00:57;4.10;99.90
19755;DHT22;10036;47.812;9.274;2023-12-28T13:03:27;4.10;99.90
19755;DHT22;10036;47.812;9.274;2023-12-28T13:05:55;4.10;99.90
19755;DHT22;10036;47.812;9.274;2023-12-28T13:08:22;4.10;99.90
19755;DHT22;10036;47.812;9.274;2023-12-28T13:10:49;4.10;99.90
19755;DHT22;10036;47.812;9.274;2023-12-28T13:13:19;4.00;99.90
19755;DHT22;10036;47.812;9.274;2023-12-28T13:15:45;4.10;99.90
19755;DHT22;10036;47.812;9.274;2023-12-28T13:18:12;4.10;99.90
19755;DHT22;10036;47.812;9.274;2023-12-28T13:20:39;4.10;99.90
19755;DHT22;10036;47.812;9.274;2023-12-28T13:23:08;4.10;99.90
19755;DHT22;10036;47.812;9.274;2023-12-28T13:25:35;4.10;99.90
19755;DHT22;10036;47.812;9.274;2023-12-28T13:28:02;4.00;99.90
19755;DHT22;10036;47.812;9.274;2023-12-28T13:30:30;4.00;99.90
19755;DHT22;10036;47.812;9.274;2023-12-28T13:36:19;4.00;99.90
19755;DHT22;10036;47.812;9.274;2023-12-28T13:38:46;4.00;99.90
19755;DHT22;10036;47.812;9.274;2023-12-28T13:41:13;4.00;99.90
19755;DHT22;10036;47.812;9.274;2023-12-28T13:43:40;4.00;99.90
19755;DHT22;10036;47.812;9.274;2023-12-28T13:46:08;4.00;99.90
19755;DHT22;10036;47.812;9.274;2023-12-28T13:48:35;4.00;99.90
19755;DHT22;10036;47.812;9.274;2023-12-28T13:51:04;4.00;99.90
19755;DHT22;10036;47.812;9.274;2023-12-28T13:53:31;4.00;99.90
19755;DHT22;10036;47.812;9.274;2023-12-28T13:56:01;4.10;99.90
19755;DHT22;10036;47.812;9.274;2023-12-28T13:58:28;4.10;99.90
19755;DHT22;10036;47.812;9.274;2023-12-28T14:00:55;4.10;99.90
19755;DHT22;10036;47.812;9.274;2023-12-28T14:03:23;4.20;99.90
19755;DHT22;10036;47.812;9.274;2023-12-28T14:05:50;4.20;99.90
19755;DHT22;10036;47.812;9.274;2023-12-28T14:08:17;4.20;99.90
19755;DHT22;10036;47.812;9.274;2023-12-28T14:10:44;4.20;99.90
19755;DHT22;10036;47.812;9.274;2023-12-28T14:13:10;4.20;99.90
19755;DHT22;10036;47.812;9.274;2023-12-28T14:15:37;4.30;99.90
19755;DHT22;10036;47.812;9.274;2023-12-28T14:18:05;4.30;99.90
19755;DHT22;10036;47.812;9.274;2023-12-28T14:20:35;4.30;99.90
19755;DHT22;10036;47.812;9.274;2023-12-28T14:23:03;4.30;99.90
19755;DHT22;10036;47.812;9.274;2023-12-28T14:25:31;4.30;99.90
19755;DHT22;10036;47.812;9.274;2023-12-28T14:27:58;4.40;99.90
19755;DHT22;10036;47.812;9.274;2023-12-28T14:30:25;4.40;99.90
19755;DHT22;10036;47.812;9.274;2023-12-28T14:32:53;4.40;99.90
19755;DHT22;10036;47.812;9.274;2023-12-28T14:35:20;4.40;99.90
19755;DHT22;10036;47.812;9.274;2023-12-28T14:37:49;4.40;99.90
19755;DHT22;10036;47.812;9.274;2023-12-28T14:40:16;4.40;99.90
19755;DHT22;10036;47.812;9.274;2023-12-28T14:42:42;4.40;99.90
19755;DHT22;10036;47.812;9.274;2023-12-28T14:45:10;4.50;99.90
19755;DHT22;10036;47.812;9.274;2023-12-28T14:47:36;4.50;99.90
19755;DHT22;10036;47.812;9.274;2023-12-28T14:50:04;4.50;99.90
19755;DHT22;10036;47.812;9.274;2023-12-28T14:52:31;4.40;99.90
19755;DHT22;10036;47.812;9.274;2023-12-28T14:55:00;4.40;99.90
19755;DHT22;10036;47.812;9.274;2023-12-28T14:57:27;4.40;99.90
19755;DHT22;10036;47.812;9.274;2023-12-28T14:59:54;4.40;99.90
19755;DHT22;10036;47.812;9.274;2023-12-28T15:02:20;4.40;99.90
19755;DHT22;10036;47.812;9.274;2023-12-28T15:04:47;4.40;99.90
19755;DHT22;10036;47.812;9.274;2023-12-28T15:07:15;4.40;99.90
19755;DHT22;10036;47.812;9.274;2023-12-28T15:09:42;4.40;99.90
19755;DHT22;10036;47.812;9.274;2023-12-28T15:12:11;4.40;99.90
19755;DHT22;10036;47.812;9.274;2023-12-28T15:14:39;4.30;99.90
19755;DHT22;10036;47.812;9.274;2023-12-28T15:17:07;4.30;99.90
19755;DHT22;10036;47.812;9.274;2023-12-28T15:19:36;4.40;99.90
19755;DHT22;10036;47.812;9.274;2023-12-28T15:22:04;4.30;99.90
19755;DHT22;10036;47.812;9.274;2023-12-28T15:24:31;4.40;99.90
19755;DHT22;10036;47.812;9.274;2023-12-28T15:26:58;4.40;99.90
19755;DHT22;10036;47.812;9.274;2023-12-28T15:29:27;4.40;99.90
19755;DHT22;10036;47.812;9.274;2023-12-28T15:31:53;4.30;99.90
19755;DHT22;10036;47.812;9.274;2023-12-28T15:34:20;4.40;99.90
19755;DHT22;10036;47.812;9.274;2023-12-28T15:36:48;4.40;99.90
19755;DHT22;10036;47.812;9.274;2023-12-28T15:39:15;4.40;99.90
19755;DHT22;10036;47.812;9.274;2023-12-28T15:41:42;4.40;99.90
19755;DHT22;10036;47.812;9.274;2023-12-28T15:44:09;4.40;99.90